Saint-Bruno-De-Guigues, Canada
Current Conditions -  °F | °C
As of 8:00 AM on Friday 19 Dec 2014 (Local Time) from CYXR Reporting Station
Scattered Clouds Scattered Clouds  
Wind Chill: -8°   Ceiling: Unl
Heat Index:   Visibility: 9mi
Dew Point:   Wind: 5mph
Humidity: 92%   Direction: 310°NW
Pressure: 30.24"   Gusts: NA
Location:  47.47°N, 79.43°W
Report Text: CYXR 191300Z AUTO 31004KT 9SM SCT006 M17/M18 A3024 RMK SLP265
Loading
Personal Weather Stations






























Interactive Weather Map New forecast layout! Learn more

10-Day Weather Forecast

Advertisements
Track Severe Weather on mobile